createdAt,value
2022-11-30T00:01:26.660Z,24.42
2022-11-30T00:06:28.559Z,25.13
2022-11-30T00:11:30.904Z,23.67
2022-11-30T00:16:34.040Z,22.60
2022-11-30T00:21:35.917Z,23.00
2022-11-30T00:26:37.984Z,22.63
2022-11-30T00:31:39.823Z,21.08
2022-11-30T00:36:41.638Z,20.98
2022-11-30T00:41:43.460Z,21.20
2022-11-30T00:46:45.271Z,20.73
2022-11-30T00:51:47.130Z,20.77
2022-11-30T00:56:48.924Z,20.15
2022-11-30T01:01:50.837Z,20.02
2022-11-30T01:06:52.652Z,21.00
2022-11-30T01:11:54.452Z,20.00
2022-11-30T01:16:56.535Z,21.27
2022-11-30T01:21:58.358Z,21.08
2022-11-30T01:27:00.567Z,20.40
2022-11-30T01:32:02.451Z,19.52
2022-11-30T01:37:04.265Z,20.40
2022-11-30T01:42:13.154Z,20.23
2022-11-30T01:47:14.981Z,18.63
2022-11-30T01:52:22.766Z,20.55
2022-11-30T01:57:36.948Z,20.70
2022-11-30T02:02:58.660Z,21.42
2022-11-30T02:08:01.385Z,20.55
2022-11-30T02:13:41.978Z,20.35
2022-11-30T02:18:48.425Z,20.90
2022-11-30T02:24:11.873Z,20.52
2022-11-30T02:29:23.019Z,19.48
2022-11-30T02:34:29.289Z,21.60
2022-11-30T02:39:31.143Z,20.73
2022-11-30T02:44:32.987Z,20.40
2022-11-30T02:49:45.488Z,20.55
2022-11-30T02:54:47.712Z,21.58
2022-11-30T02:59:50.232Z,20.05
2022-11-30T03:04:52.051Z,19.80
2022-11-30T03:09:53.881Z,20.63
2022-11-30T03:14:55.826Z,20.52
2022-11-30T03:19:57.710Z,19.63
2022-11-30T03:24:59.526Z,20.42
2022-11-30T03:30:01.801Z,19.95
2022-11-30T03:35:03.761Z,20.00
2022-11-30T03:40:06.273Z,19.67
2022-11-30T03:45:08.328Z,20.02
2022-11-30T03:50:11.290Z,19.85
2022-11-30T03:55:13.369Z,19.80
2022-11-30T04:00:15.537Z,19.65
2022-11-30T04:05:17.996Z,20.40
2022-11-30T04:10:20.184Z,18.48
2022-11-30T04:15:22.074Z,19.48
2022-11-30T04:20:24.023Z,20.58
2022-11-30T04:25:25.895Z,17.08
2022-11-30T04:30:27.919Z,21.10
2022-11-30T04:35:29.822Z,18.10
2022-11-30T04:40:31.641Z,19.27
2022-11-30T04:45:35.558Z,18.23
2022-11-30T04:50:38.031Z,20.58
2022-11-30T04:55:40.006Z,20.73
2022-11-30T05:00:41.839Z,22.02
2022-11-30T05:05:43.648Z,21.40
2022-11-30T05:10:50.180Z,23.17
2022-11-30T05:15:54.755Z,20.37
2022-11-30T05:20:56.636Z,20.85
2022-11-30T05:25:58.416Z,22.13
2022-11-30T05:31:05.080Z,21.67
2022-11-30T05:36:10.801Z,21.80
2022-11-30T05:41:13.497Z,22.27
2022-11-30T05:46:15.387Z,21.52
2022-11-30T05:51:19.153Z,21.80
2022-11-30T05:56:21.966Z,20.88
2022-11-30T06:01:28.455Z,21.13
2022-11-30T06:06:30.240Z,21.00
2022-11-30T06:11:32.064Z,19.10
2022-11-30T06:16:33.931Z,19.17
2022-11-30T06:21:35.788Z,18.33
2022-11-30T06:26:37.620Z,20.52
2022-11-30T06:31:39.619Z,18.80
2022-11-30T06:36:41.458Z,17.77
2022-11-30T06:41:43.266Z,17.98
2022-11-30T06:46:45.108Z,17.63
2022-11-30T06:51:46.917Z,17.17
2022-11-30T06:56:48.992Z,18.88
2022-11-30T07:01:50.821Z,19.48
2022-11-30T07:06:52.689Z,18.23
2022-11-30T07:11:54.580Z,17.20
2022-11-30T07:16:57.101Z,19.50
2022-11-30T07:21:58.975Z,19.17
2022-11-30T07:27:03.069Z,18.35
2022-11-30T07:32:05.123Z,18.63
2022-11-30T07:37:06.962Z,18.42
2022-11-30T07:42:08.809Z,19.02
2022-11-30T07:47:10.647Z,17.77
2022-11-30T07:52:12.552Z,17.92
2022-11-30T07:57:14.452Z,18.20
2022-11-30T08:02:16.405Z,17.05
2022-11-30T08:07:18.519Z,18.45
2022-11-30T08:12:20.417Z,16.67
2022-11-30T08:17:22.241Z,17.02
2022-11-30T08:22:24.075Z,16.73
2022-11-30T08:27:26.605Z,17.90
2022-11-30T08:32:28.456Z,17.63
2022-11-30T08:37:30.294Z,17.77
2022-11-30T08:42:32.143Z,16.60
2022-11-30T08:47:34.007Z,16.67
2022-11-30T08:52:36.049Z,19.65
2022-11-30T08:57:37.877Z,16.42
2022-11-30T09:02:39.758Z,18.05
2022-11-30T09:07:41.700Z,16.58
2022-11-30T09:12:43.688Z,17.90
2022-11-30T09:17:45.486Z,17.15
2022-11-30T09:22:47.302Z,18.02
2022-11-30T09:27:49.122Z,16.42
2022-11-30T09:32:50.930Z,15.85
2022-11-30T09:37:53.656Z,17.63
2022-11-30T09:43:14.658Z,18.08
2022-11-30T09:49:05.629Z,16.45
2022-11-30T09:54:15.273Z,15.43
2022-11-30T09:59:29.736Z,15.63
2022-11-30T10:04:31.584Z,15.35
2022-11-30T10:09:33.332Z,15.35
2022-11-30T10:14:47.452Z,17.48
2022-11-30T10:20:13.402Z,16.52
2022-11-30T10:25:27.702Z,16.15
2022-11-30T10:30:36.559Z,16.15
2022-11-30T10:35:44.499Z,16.40
2022-11-30T10:40:53.670Z,15.02
2022-11-30T10:45:55.752Z,12.03
2022-11-30T10:51:00.697Z,15.65
2022-11-30T10:56:09.884Z,14.00
2022-11-30T11:01:30.386Z,13.50
2022-11-30T11:06:33.604Z,14.27
2022-11-30T11:11:39.132Z,13.15
2022-11-30T11:16:55.969Z,13.10
2022-11-30T11:21:57.968Z,15.40
2022-11-30T11:27:00.039Z,15.38
2022-11-30T11:32:27.279Z,14.55
2022-11-30T11:37:37.850Z,15.43
2022-11-30T11:42:50.003Z,16.95
2022-11-30T11:48:29.172Z,15.05
2022-11-30T11:53:44.854Z,14.75
2022-11-30T11:59:10.671Z,14.65
2022-11-30T12:04:29.366Z,16.92
2022-11-30T12:09:37.471Z,15.25
2022-11-30T12:14:39.294Z,15.77
2022-11-30T12:19:54.607Z,15.32
2022-11-30T12:25:06.392Z,15.88
2022-11-30T12:30:49.266Z,15.70
2022-11-30T12:36:06.183Z,15.68
2022-11-30T12:41:30.712Z,16.05
2022-11-30T12:46:48.479Z,15.80
2022-11-30T12:52:17.242Z,15.90
2022-11-30T12:57:36.784Z,17.17
2022-11-30T13:02:47.971Z,15.47
2022-11-30T13:08:13.196Z,16.95
2022-11-30T13:13:19.946Z,15.70
2022-11-30T13:18:24.503Z,16.25
2022-11-30T13:23:42.673Z,15.93
2022-11-30T13:29:27.730Z,16.73
2022-11-30T13:34:30.326Z,15.45
2022-11-30T13:39:51.541Z,15.20
2022-11-30T13:44:53.860Z,15.07
2022-11-30T13:50:18.619Z,14.20
2022-11-30T13:55:35.798Z,12.85
2022-11-30T14:00:37.613Z,12.15
2022-11-30T14:05:41.256Z,13.50
2022-11-30T14:10:46.144Z,13.18
2022-11-30T14:15:47.944Z,13.48
2022-11-30T14:20:52.616Z,13.57
2022-11-30T14:25:57.378Z,12.73
2022-11-30T14:31:00.301Z,14.15
2022-11-30T14:36:02.997Z,14.05
2022-11-30T14:41:05.687Z,14.35
2022-11-30T14:46:12.982Z,16.63
2022-11-30T14:51:18.298Z,14.32
2022-11-30T14:56:49.849Z,13.35
2022-11-30T15:02:00.598Z,14.43
2022-11-30T15:07:02.600Z,15.50
2022-11-30T15:12:04.590Z,15.38
2022-11-30T15:17:14.633Z,14.30
2022-11-30T15:22:23.041Z,15.05
2022-11-30T15:27:25.050Z,15.95
2022-11-30T15:32:27.276Z,12.95
2022-11-30T15:37:35.522Z,13.80
2022-11-30T15:42:43.692Z,14.52
2022-11-30T15:47:45.609Z,16.20
2022-11-30T15:52:50.952Z,16.25
2022-11-30T15:58:03.374Z,16.63
2022-11-30T16:03:13.320Z,16.70
2022-11-30T16:08:18.150Z,22.33
2022-11-30T16:13:22.660Z,16.27
2022-11-30T16:18:28.359Z,20.08
2022-11-30T16:23:30.352Z,18.67
2022-11-30T16:28:32.211Z,16.00
2022-11-30T16:33:34.070Z,16.20
2022-11-30T16:38:35.877Z,18.48
2022-11-30T16:43:40.440Z,14.98
2022-11-30T16:48:42.654Z,16.45
2022-11-30T16:53:45.564Z,16.20
2022-11-30T16:58:48.021Z,16.15
2022-11-30T17:03:51.886Z,16.13
2022-11-30T17:08:54.105Z,16.00
2022-11-30T17:13:56.411Z,15.90
2022-11-30T17:18:58.410Z,15.73
2022-11-30T17:24:01.375Z,15.07
2022-11-30T17:29:04.604Z,15.18
2022-11-30T17:34:08.646Z,16.25
2022-11-30T17:39:10.656Z,17.05
2022-11-30T17:44:12.489Z,19.25
2022-11-30T17:49:14.324Z,18.65
2022-11-30T17:54:17.016Z,16.67
2022-11-30T17:59:19.501Z,16.52
2022-11-30T18:04:21.365Z,17.45
2022-11-30T18:09:24.426Z,16.20
2022-11-30T18:14:26.342Z,15.82
2022-11-30T18:19:28.125Z,17.85
2022-11-30T18:24:32.042Z,18.20
2022-11-30T18:29:34.099Z,20.85
2022-11-30T18:34:36.049Z,20.60
2022-11-30T18:39:37.886Z,18.02
2022-11-30T18:44:39.735Z,16.35
2022-11-30T18:49:41.589Z,15.73
2022-11-30T18:54:43.481Z,15.73
2022-11-30T18:59:48.724Z,16.23
2022-11-30T19:04:52.949Z,15.82
2022-11-30T19:09:55.374Z,18.30
2022-11-30T19:14:57.888Z,15.98
2022-11-30T19:20:00.758Z,17.80
2022-11-30T19:25:02.700Z,19.58
2022-11-30T19:30:06.676Z,18.85
2022-11-30T19:35:08.546Z,19.90
2022-11-30T19:40:10.939Z,21.95
2022-11-30T19:45:12.803Z,21.15
2022-11-30T19:50:14.845Z,22.40
2022-11-30T19:55:16.779Z,24.52
2022-11-30T20:00:19.067Z,26.75
2022-11-30T20:05:20.910Z,24.52
2022-11-30T20:10:23.253Z,25.08
2022-11-30T20:15:25.735Z,26.13
2022-11-30T20:20:27.648Z,27.50
2022-11-30T20:25:31.196Z,25.25
2022-11-30T20:30:33.126Z,26.02
2022-11-30T20:35:35.296Z,25.42
2022-11-30T20:40:39.877Z,25.58
2022-11-30T20:45:41.707Z,26.27
2022-11-30T20:50:51.332Z,27.08
2022-11-30T20:56:06.321Z,26.35
2022-11-30T21:01:14.147Z,26.90
2022-11-30T21:06:16.061Z,31.05
2022-11-30T21:11:20.215Z,27.08
2022-11-30T21:16:28.296Z,26.65
2022-11-30T21:21:33.434Z,27.42
2022-11-30T21:26:41.289Z,25.17
2022-11-30T21:31:43.990Z,25.00
2022-11-30T21:36:46.021Z,24.80
2022-11-30T21:41:47.921Z,24.10
2022-11-30T21:46:50.455Z,25.42
2022-11-30T21:51:53.635Z,26.50
2022-11-30T21:56:55.389Z,25.80
2022-11-30T22:01:57.198Z,27.60
2022-11-30T22:06:59.049Z,26.33
2022-11-30T22:12:00.886Z,26.83
2022-11-30T22:17:02.742Z,25.55
2022-11-30T22:22:04.630Z,26.45
2022-11-30T22:27:06.492Z,27.35
2022-11-30T22:32:08.368Z,27.65
2022-11-30T22:37:10.189Z,29.52
2022-11-30T22:42:12.017Z,27.23
2022-11-30T22:47:15.066Z,27.13
2022-11-30T22:52:16.876Z,26.77
2022-11-30T22:57:18.857Z,26.35
2022-11-30T23:02:20.674Z,25.70
2022-11-30T23:07:25.151Z,24.33
2022-11-30T23:12:58.043Z,23.38
2022-11-30T23:17:52.608Z,28.27
2022-11-30T23:22:54.455Z,23.48
2022-11-30T23:27:56.324Z,23.45
2022-11-30T23:32:58.207Z,24.08
2022-11-30T23:38:00.028Z,24.30
2022-11-30T23:43:01.832Z,25.48
2022-11-30T23:48:03.708Z,26.52
2022-11-30T23:53:05.538Z,23.77
2022-11-30T23:58:07.360Z,23.40
